Topton, NC (28781)

5:42 PM EDT on September 03, 2015 (GMT -0400)
Noon Day Sun Ridge | | Change Station
CLOSE
Current Station
Personal Weather Station
Location: Topton, NC
Elevation: 3003 ft
Nearby Weather Stations

Elev 3003 ft 35.26 °N, 83.69 °W | Updated 12 seconds ago

Partly Cloudy
Partly Cloudy
81.5 °F
Feels Like 85 °F
N
0.0
Wind Variable Wind from North
Gusts 0.0 mph

Today
High -- | Low -- °F
--% Chance of Precip.
Yesterday
High -- | Low -- °F
Precip. -- in
7:08 AM 7:59 PM
Waning Gibbous, 66% visible
Pressure 29.98 in
Visibility 10.0 miles
Clouds Scattered Clouds 5500 ft
Heat Index 85 °F
Dew Point 70 °F
Humidity 67%
Rainfall 0.00 in
Snow Depth Not available.
UV 2 out of 12
Pollen 9.60 out of 12
Air Quality Not available.
Flu Activity Not available.
METAR KRHP 032135Z AUTO 30003KT 10SM SCT055 30/20 A2998 RMK AO2 T02980196
Pressure 29.98 in
Visibility 10.0 miles
Clouds Scattered Clouds 5500 ft
Heat Index 85 °F
Dew Point 70 °F
Humidity 67%
Rainfall 0.00 in
Snow Depth Not available.
UV 2 out of 12
Pollen 9.60 out of 12
Air Quality Not available.
Flu Activity Not available.
METAR KRHP 032135Z AUTO 30003KT 10SM SCT055 30/20 A2998 RMK AO2 T02980196

10-Day Weather Forecast

×

Almanac

Astronomy

Sep. 03, 2015 Rise Set
Actual Time
Civil Twilight
Nautical Twilight
Astronomical Twilight
Moon
Length of Visible Light
Length of Day
Tomorrow will be .
, % of the Moon is Illuminated

Today's Extremes

State Highs State Lows

Community

WunderPhotos

Upload Photos

1,852,045 photos uploaded!

WunderBlogs® & News

Nearby

Air Quality

  Air Quality AQ Index Pollutant
Not available.

Snow Depth

Station Depth Elevation

Earthquake Activity

City Distance Mag. Time & Date
Minimum magnitude displayed is 2.5.

Coastal Water Temperatures

Place Temperature

Stations

Nearby Weather Stations

Station Location Temp. Windchill Dew Point Humidity Wind Precip. Elev Updated Type